createdAt,value
2018-02-25T00:00:33.957Z,959.31
2018-02-25T00:01:33.966Z,959.37
2018-02-25T00:02:33.974Z,959.35
2018-02-25T00:03:33.982Z,959.31
2018-02-25T00:04:33.992Z,959.34
2018-02-25T00:05:34.000Z,959.31
2018-02-25T00:06:34.009Z,959.35
2018-02-25T00:07:34.018Z,959.34
2018-02-25T00:08:34.033Z,959.29
2018-02-25T00:09:34.035Z,959.42
2018-02-25T00:10:34.042Z,959.31
2018-02-25T00:11:34.053Z,959.3
2018-02-25T00:12:34.061Z,959.29
2018-02-25T00:13:34.069Z,959.28
2018-02-25T00:14:34.078Z,959.27
2018-02-25T00:15:34.088Z,959.27
2018-02-25T00:16:34.095Z,959.28
2018-02-25T00:17:34.105Z,959.32
2018-02-25T00:18:34.115Z,959.27
2018-02-25T00:19:34.122Z,959.33
2018-02-25T00:20:34.129Z,959.28
2018-02-25T00:21:34.141Z,959.34
2018-02-25T00:22:34.150Z,959.3
2018-02-25T00:23:34.156Z,959.26
2018-02-25T00:24:34.164Z,959.3
2018-02-25T00:25:34.172Z,959.3
2018-02-25T00:26:34.182Z,959.38
2018-02-25T00:27:34.189Z,959.33
2018-02-25T00:28:34.199Z,959.36
2018-02-25T00:29:34.206Z,959.31
2018-02-25T00:30:34.216Z,959.36
2018-02-25T00:31:34.224Z,959.3
2018-02-25T00:32:34.233Z,959.3
2018-02-25T00:33:34.241Z,959.29
2018-02-25T00:34:34.250Z,959.37
2018-02-25T00:35:34.257Z,959.33
2018-02-25T00:36:34.265Z,959.26
2018-02-25T00:37:34.274Z,959.31
2018-02-25T00:38:34.283Z,959.29
2018-02-25T00:39:34.291Z,959.27
2018-02-25T00:40:34.304Z,959.3
2018-02-25T00:41:34.308Z,959.25
2018-02-25T00:42:34.317Z,959.29
2018-02-25T00:43:34.325Z,959.31
2018-02-25T00:44:34.334Z,959.3
2018-02-25T00:45:34.342Z,959.28
2018-02-25T00:46:34.351Z,959.18
2018-02-25T00:47:34.358Z,959.22
2018-02-25T00:48:34.372Z,959.13
2018-02-25T00:49:34.376Z,959.19
2018-02-25T00:50:34.388Z,959.16
2018-02-25T00:51:34.398Z,959.09
2018-02-25T00:52:34.402Z,959.14
2018-02-25T00:53:34.408Z,959.17
2018-02-25T00:54:34.417Z,959.09
2018-02-25T00:55:34.425Z,959.18
2018-02-25T00:56:34.436Z,959.14
2018-02-25T00:57:34.443Z,959.14
2018-02-25T00:58:34.450Z,959.15
2018-02-25T00:59:34.460Z,959.16
2018-02-25T01:00:34.467Z,959.16
2018-02-25T01:01:34.476Z,959.12
2018-02-25T01:02:34.484Z,959.15
2018-02-25T01:03:34.493Z,959.17
2018-02-25T01:04:34.502Z,959.13
2018-02-25T01:05:34.508Z,959.07
2018-02-25T01:06:34.517Z,959.09
2018-02-25T01:07:34.525Z,959.11
2018-02-25T01:08:34.534Z,959.12
2018-02-25T01:09:34.542Z,959.09
2018-02-25T01:10:34.550Z,959.1
2018-02-25T01:11:34.566Z,959.08
2018-02-25T01:12:34.567Z,959.09
2018-02-25T01:13:34.575Z,959.15
2018-02-25T01:14:34.584Z,959.14
2018-02-25T01:15:34.595Z,959.16
2018-02-25T01:16:34.600Z,959.17
2018-02-25T01:17:34.608Z,959.12
2018-02-25T01:18:34.629Z,959.14
2018-02-25T01:19:34.623Z,959.14
2018-02-25T01:20:34.633Z,959.16
2018-02-25T01:21:34.640Z,959.15
2018-02-25T01:22:34.653Z,959.16
2018-02-25T01:23:34.658Z,959.16
2018-02-25T01:24:34.667Z,959.23
2018-02-25T01:25:34.706Z,959.24
2018-02-25T01:26:34.683Z,959.19
2018-02-25T01:27:34.691Z,959.23
2018-02-25T01:28:34.700Z,959.21
2018-02-25T01:29:34.707Z,959.17
2018-02-25T01:30:34.715Z,959.24
2018-02-25T01:31:34.726Z,959.25
2018-02-25T01:32:34.730Z,959.24
2018-02-25T01:33:34.737Z,959.24
2018-02-25T01:34:34.747Z,959.26
2018-02-25T01:35:34.755Z,959.24
2018-02-25T01:36:34.764Z,959.2
2018-02-25T01:37:34.769Z,959.23
2018-02-25T01:38:34.778Z,959.18
2018-02-25T01:39:34.787Z,959.22
2018-02-25T01:40:34.793Z,959.21
2018-02-25T01:41:34.802Z,959.28
2018-02-25T01:42:34.810Z,959.27
2018-02-25T01:43:34.822Z,959.28
2018-02-25T01:44:34.877Z,959.25
2018-02-25T01:45:34.835Z,959.18
2018-02-25T01:46:34.846Z,959.22
2018-02-25T01:47:34.851Z,959.22
2018-02-25T01:48:34.860Z,959.13
2018-02-25T01:49:34.866Z,959.11
2018-02-25T01:50:34.875Z,959.02
2018-02-25T01:51:34.881Z,959.04
2018-02-25T01:52:34.891Z,959.02
2018-02-25T01:53:34.901Z,959.06
2018-02-25T01:54:34.907Z,959.07
2018-02-25T01:55:34.914Z,959.06
2018-02-25T01:56:34.922Z,959.15
2018-02-25T01:57:34.930Z,959.03
2018-02-25T01:58:34.941Z,959.05
2018-02-25T01:59:34.994Z,959.15
2018-02-25T02:00:34.954Z,959.11
2018-02-25T02:01:34.970Z,959.16
2018-02-25T02:02:34.973Z,959.13
2018-02-25T02:03:34.976Z,959.12
2018-02-25T02:04:34.983Z,959.04
2018-02-25T02:05:34.991Z,959.1
2018-02-25T02:06:34.998Z,959.06
2018-02-25T02:07:35.007Z,959.01
2018-02-25T02:08:35.020Z,959.06
2018-02-25T02:09:35.021Z,959.04
2018-02-25T02:10:35.030Z,959.09
2018-02-25T02:11:35.036Z,959.12
2018-02-25T02:12:35.045Z,959.15
2018-02-25T02:13:35.054Z,959.1
2018-02-25T02:14:35.109Z,959.08
2018-02-25T02:15:35.068Z,959.09
2018-02-25T02:16:35.075Z,959.1
2018-02-25T02:17:35.083Z,959.11
2018-02-25T02:18:35.089Z,959.14
2018-02-25T02:19:35.097Z,959.14
2018-02-25T02:20:35.104Z,959.09
2018-02-25T02:21:35.113Z,959.06
2018-02-25T02:22:35.119Z,959.09
2018-02-25T02:23:35.128Z,959.13
2018-02-25T02:24:35.136Z,959.12
2018-02-25T02:25:35.143Z,959.11
2018-02-25T02:26:35.150Z,959.1
2018-02-25T02:27:35.165Z,959.08
2018-02-25T02:28:35.166Z,959.1
2018-02-25T02:29:35.174Z,959.07
2018-02-25T02:30:35.232Z,959.06
2018-02-25T02:31:35.189Z,959.01
2018-02-25T02:32:35.194Z,959.08
2018-02-25T02:33:35.203Z,958.99
2018-02-25T02:34:35.213Z,958.95
2018-02-25T02:35:35.219Z,959.01
2018-02-25T02:36:35.227Z,958.97
2018-02-25T02:37:35.234Z,958.94
2018-02-25T02:38:35.243Z,959.01
2018-02-25T02:39:35.249Z,959
2018-02-25T02:40:35.257Z,958.99
2018-02-25T02:41:35.276Z,959.02
2018-02-25T02:42:35.272Z,959.04
2018-02-25T02:43:35.278Z,959.02
2018-02-25T02:44:35.287Z,959.05
2018-02-25T02:45:35.345Z,959.01
2018-02-25T02:46:35.301Z,959.01
2018-02-25T02:47:35.311Z,958.99
2018-02-25T02:48:35.316Z,958.98
2018-02-25T02:49:35.325Z,959.07
2018-02-25T02:50:35.331Z,959.01
2018-02-25T02:51:35.337Z,959
2018-02-25T02:52:35.347Z,958.96
2018-02-25T02:53:35.353Z,958.94
2018-02-25T02:54:35.362Z,959.01
2018-02-25T02:55:35.374Z,959
2018-02-25T02:56:35.378Z,958.98
2018-02-25T02:57:35.383Z,958.98
2018-02-25T02:58:35.391Z,958.98
2018-02-25T02:59:35.400Z,958.95
2018-02-25T03:00:35.457Z,958.99
2018-02-25T03:01:35.415Z,958.99
2018-02-25T03:02:35.421Z,959
2018-02-25T03:03:35.430Z,958.96
2018-02-25T03:04:35.437Z,959.01
2018-02-25T03:05:35.444Z,958.99
2018-02-25T03:06:35.452Z,959.01
2018-02-25T03:07:35.470Z,959.03
2018-02-25T03:08:35.466Z,959.02
2018-02-25T03:09:35.475Z,959.06
2018-02-25T03:10:35.481Z,959.08
2018-02-25T03:11:35.488Z,959.05
2018-02-25T03:12:35.495Z,959.04
2018-02-25T03:13:35.503Z,959
2018-02-25T03:14:35.512Z,959.07
2018-02-25T03:15:35.570Z,959.07
2018-02-25T03:16:35.525Z,959.12
2018-02-25T03:17:35.577Z,959.1
2018-02-25T03:18:35.544Z,959.11
2018-02-25T03:19:35.548Z,959.12
2018-02-25T03:20:35.556Z,959.14
2018-02-25T03:21:35.562Z,959.14
2018-02-25T03:22:35.572Z,959.17
2018-02-25T03:23:35.579Z,959.12
2018-02-25T03:24:35.587Z,959.14
2018-02-25T03:25:35.595Z,959.12
2018-02-25T03:26:35.602Z,959.18
2018-02-25T03:27:35.610Z,959.16
2018-02-25T03:28:35.615Z,959.16
2018-02-25T03:29:35.625Z,959.12
2018-02-25T03:30:35.632Z,959.14
2018-02-25T03:31:35.690Z,959.13
2018-02-25T03:32:35.645Z,959.05
2018-02-25T03:33:35.652Z,959.1
2018-02-25T03:34:35.659Z,959.09
2018-02-25T03:35:35.669Z,959.07
2018-02-25T03:36:35.676Z,959.07
2018-02-25T03:37:35.682Z,959.04
2018-02-25T03:38:35.689Z,959.05
2018-02-25T03:39:35.698Z,959.05
2018-02-25T03:40:35.706Z,959.04
2018-02-25T03:41:35.712Z,959.02
2018-02-25T03:42:35.718Z,959.09
2018-02-25T03:43:35.727Z,959.07
2018-02-25T03:44:35.733Z,959.08
2018-02-25T03:45:35.741Z,959.11
2018-02-25T03:46:35.799Z,959.12
2018-02-25T03:47:35.756Z,959.11
2018-02-25T03:48:35.764Z,959.14
2018-02-25T03:49:35.771Z,959.13
2018-02-25T03:50:35.791Z,959.13
2018-02-25T03:51:35.786Z,959.19
2018-02-25T03:52:35.793Z,959.19
2018-02-25T03:53:35.800Z,959.21
2018-02-25T03:54:35.808Z,959.16
2018-02-25T03:55:35.814Z,959.04
2018-02-25T03:56:35.821Z,959.13
2018-02-25T03:57:35.833Z,959.15
2018-02-25T03:58:35.836Z,959.15
2018-02-25T03:59:35.843Z,959.16
2018-02-25T04:00:35.851Z,959.19
2018-02-25T04:01:35.907Z,959.15
2018-02-25T04:02:35.865Z,959.19
2018-02-25T04:03:35.877Z,959.19
2018-02-25T04:04:35.880Z,959.15
2018-02-25T04:05:35.887Z,959.21
2018-02-25T04:06:35.894Z,959.21
2018-02-25T04:07:35.902Z,959.25
2018-02-25T04:08:35.908Z,959.2
2018-02-25T04:09:35.915Z,959.17
2018-02-25T04:10:35.921Z,959.27
2018-02-25T04:11:35.935Z,959.21
2018-02-25T04:12:35.936Z,959.23
2018-02-25T04:13:35.944Z,959.24
2018-02-25T04:14:35.951Z,959.35
2018-02-25T04:15:35.958Z,959.3
2018-02-25T04:16:36.019Z,959.29
2018-02-25T04:17:35.973Z,959.24
2018-02-25T04:18:35.985Z,959.29
2018-02-25T04:19:35.988Z,959.19
2018-02-25T04:20:35.994Z,959.28
2018-02-25T04:21:36.001Z,959.31
2018-02-25T04:22:36.008Z,959.31
2018-02-25T04:23:36.016Z,959.34
2018-02-25T04:24:36.025Z,959.38
2018-02-25T04:25:36.030Z,959.34
2018-02-25T04:26:36.037Z,959.38
2018-02-25T04:27:36.045Z,959.39
2018-02-25T04:28:36.052Z,959.37
2018-02-25T04:29:36.056Z,959.38
2018-02-25T04:30:36.066Z,959.34
2018-02-25T04:31:36.121Z,959.33
2018-02-25T04:32:36.079Z,959.34
2018-02-25T04:33:36.087Z,959.32
2018-02-25T04:34:36.093Z,959.38
2018-02-25T04:35:36.100Z,959.27
2018-02-25T04:36:36.108Z,959.32
2018-02-25T04:37:36.113Z,959.29
2018-02-25T04:38:36.124Z,959.3
2018-02-25T04:39:36.128Z,959.31
2018-02-25T04:40:36.135Z,959.33
2018-02-25T04:41:36.143Z,959.31
2018-02-25T04:42:36.151Z,959.34
2018-02-25T04:43:36.155Z,959.4
2018-02-25T04:44:36.162Z,959.41
2018-02-25T04:45:36.173Z,959.41
2018-02-25T04:46:36.228Z,959.42
2018-02-25T04:47:36.184Z,959.41
2018-02-25T04:48:36.193Z,959.45
2018-02-25T04:49:36.201Z,959.42
2018-02-25T04:50:36.206Z,959.49
2018-02-25T04:51:36.213Z,959.46
2018-02-25T04:52:36.238Z,959.44
2018-02-25T04:53:36.227Z,959.47
2018-02-25T04:54:36.234Z,959.45
2018-02-25T04:55:36.241Z,959.41
2018-02-25T04:56:36.248Z,959.45
2018-02-25T04:57:36.255Z,959.43
2018-02-25T04:58:36.264Z,959.47
2018-02-25T04:59:36.271Z,959.51
2018-02-25T05:00:36.278Z,959.5
2018-02-25T05:01:36.283Z,959.48
2018-02-25T05:02:36.292Z,959.55
2018-02-25T05:03:36.347Z,959.54
2018-02-25T05:04:36.303Z,959.5
2018-02-25T05:05:36.311Z,959.54
2018-02-25T05:06:36.318Z,959.53
2018-02-25T05:07:36.325Z,959.51
2018-02-25T05:08:36.336Z,959.54
2018-02-25T05:09:36.339Z,959.59
2018-02-25T05:10:36.346Z,959.51
2018-02-25T05:11:36.353Z,959.51
2018-02-25T05:12:36.359Z,959.52
2018-02-25T05:13:36.365Z,959.5
2018-02-25T05:14:36.373Z,959.44
2018-02-25T05:15:36.382Z,959.49
2018-02-25T05:16:36.390Z,959.48
2018-02-25T05:17:36.393Z,959.49
2018-02-25T05:18:36.452Z,959.44
2018-02-25T05:19:36.408Z,959.39
2018-02-25T05:20:36.415Z,959.45
2018-02-25T05:21:36.422Z,959.42
2018-02-25T05:22:36.433Z,959.44
2018-02-25T05:23:36.436Z,959.39
2018-02-25T05:24:36.441Z,959.45
2018-02-25T05:25:36.450Z,959.39
2018-02-25T05:26:36.457Z,959.43
2018-02-25T05:27:36.463Z,959.46
2018-02-25T05:28:36.470Z,959.47
2018-02-25T05:29:36.477Z,959.46
2018-02-25T05:30:36.484Z,959.52
2018-02-25T05:31:36.491Z,959.44
2018-02-25T05:32:36.498Z,959.47
2018-02-25T05:33:36.554Z,959.48
2018-02-25T05:34:36.511Z,959.49
2018-02-25T05:35:36.518Z,959.48
2018-02-25T05:36:36.525Z,959.47
2018-02-25T05:37:36.532Z,959.47
2018-02-25T05:38:36.539Z,959.52
2018-02-25T05:39:36.546Z,959.47
2018-02-25T05:40:36.553Z,959.49
2018-02-25T05:41:36.558Z,959.47
2018-02-25T05:42:36.565Z,959.53
2018-02-25T05:43:36.574Z,959.48
2018-02-25T05:44:36.579Z,959.48
2018-02-25T05:45:36.586Z,959.51
2018-02-25T05:46:36.592Z,959.45
2018-02-25T05:47:36.618Z,959.48
2018-02-25T05:48:36.657Z,959.46
2018-02-25T05:49:36.614Z,959.48
2018-02-25T05:50:36.621Z,959.48
2018-02-25T05:51:36.627Z,959.47
2018-02-25T05:52:36.633Z,959.48
2018-02-25T05:53:36.644Z,959.54
2018-02-25T05:54:36.649Z,959.51
2018-02-25T05:55:36.656Z,959.49
2018-02-25T05:56:36.661Z,959.51
2018-02-25T05:57:36.670Z,959.55
2018-02-25T05:58:36.677Z,959.56
2018-02-25T05:59:36.684Z,959.56
2018-02-25T06:00:36.691Z,959.59
2018-02-25T06:01:36.697Z,959.59
2018-02-25T06:02:36.704Z,959.56
2018-02-25T06:03:36.761Z,959.58
2018-02-25T06:04:36.718Z,959.54
2018-02-25T06:05:36.726Z,959.58
2018-02-25T06:06:36.745Z,959.6
2018-02-25T06:07:36.740Z,959.59
2018-02-25T06:08:36.746Z,959.57
2018-02-25T06:09:36.755Z,959.6
2018-02-25T06:10:36.761Z,959.61
2018-02-25T06:11:36.770Z,959.58
2018-02-25T06:12:36.774Z,959.66
2018-02-25T06:13:36.784Z,959.59
2018-02-25T06:14:36.790Z,959.6
2018-02-25T06:15:36.797Z,959.69
2018-02-25T06:16:36.804Z,959.65
2018-02-25T06:17:36.812Z,959.67
2018-02-25T06:18:36.868Z,959.67
2018-02-25T06:19:36.825Z,959.74
2018-02-25T06:20:36.832Z,959.77
2018-02-25T06:21:36.841Z,959.75
2018-02-25T06:22:36.846Z,959.74
2018-02-25T06:23:36.855Z,959.74
2018-02-25T06:24:36.862Z,959.72
2018-02-25T06:25:36.869Z,959.73
2018-02-25T06:26:36.876Z,959.73
2018-02-25T06:27:36.884Z,959.69
2018-02-25T06:28:36.891Z,959.73
2018-02-25T06:29:36.897Z,959.73
2018-02-25T06:30:36.905Z,959.81
2018-02-25T06:31:36.911Z,959.76
2018-02-25T06:32:36.921Z,959.75
2018-02-25T06:33:36.928Z,959.75
2018-02-25T06:34:36.938Z,959.75
2018-02-25T06:35:36.993Z,959.77
2018-02-25T06:36:36.949Z,959.72
2018-02-25T06:37:36.957Z,959.78
2018-02-25T06:38:36.964Z,959.78
2018-02-25T06:39:36.974Z,959.78
2018-02-25T06:40:37.029Z,959.8
2018-02-25T06:41:36.986Z,959.75
2018-02-25T06:42:36.998Z,959.78
2018-02-25T06:43:37.000Z,959.81
2018-02-25T06:44:37.008Z,959.8
2018-02-25T06:45:37.015Z,959.77
2018-02-25T06:46:37.024Z,959.76
2018-02-25T06:47:37.035Z,959.84
2018-02-25T06:48:37.037Z,959.82
2018-02-25T06:49:37.067Z,959.87
2018-02-25T06:50:37.103Z,959.81
2018-02-25T06:51:37.061Z,959.89
2018-02-25T06:52:37.068Z,959.86
2018-02-25T06:53:37.077Z,959.89
2018-02-25T06:54:37.082Z,959.89
2018-02-25T06:55:37.090Z,959.91
2018-02-25T06:56:37.100Z,959.89
2018-02-25T06:57:37.105Z,959.93
2018-02-25T06:58:37.113Z,959.93
2018-02-25T06:59:37.166Z,959.94
2018-02-25T07:00:37.129Z,959.9
2018-02-25T07:01:37.136Z,959.87
2018-02-25T07:02:37.142Z,959.9
2018-02-25T07:03:37.151Z,959.88
2018-02-25T07:04:37.159Z,959.9
2018-02-25T07:05:37.215Z,959.92
2018-02-25T07:06:37.172Z,959.92
2018-02-25T07:07:37.182Z,959.92
2018-02-25T07:08:37.189Z,959.9
2018-02-25T07:09:37.196Z,959.92
2018-02-25T07:10:37.204Z,959.92
2018-02-25T07:11:37.212Z,959.88
2018-02-25T07:12:37.220Z,959.91
2018-02-25T07:13:37.230Z,959.92
2018-02-25T07:14:37.235Z,959.9
2018-02-25T07:15:37.242Z,959.9
2018-02-25T07:16:37.249Z,959.91
2018-02-25T07:17:37.261Z,959.86
2018-02-25T07:18:37.270Z,959.88
2018-02-25T07:19:37.274Z,959.87
2018-02-25T07:20:37.330Z,959.87
2018-02-25T07:21:37.290Z,959.82
2018-02-25T07:22:37.296Z,959.84
2018-02-25T07:23:37.305Z,959.89
2018-02-25T07:24:37.310Z,959.88
2018-02-25T07:25:37.317Z,959.88
2018-02-25T07:26:37.326Z,959.87
2018-02-25T07:27:37.335Z,959.87
2018-02-25T07:28:37.341Z,959.79
2018-02-25T07:29:37.350Z,959.89
2018-02-25T07:30:37.408Z,959.85
2018-02-25T07:31:37.366Z,959.83
2018-02-25T07:32:37.372Z,959.82
2018-02-25T07:33:37.379Z,959.83
2018-02-25T07:34:37.389Z,959.83
2018-02-25T07:35:37.395Z,959.83
2018-02-25T07:36:37.403Z,959.8
2018-02-25T07:37:37.411Z,959.78
2018-02-25T07:38:37.419Z,959.78
2018-02-25T07:39:37.427Z,959.81
2018-02-25T07:40:37.438Z,959.83
2018-02-25T07:41:37.446Z,959.8
2018-02-25T07:42:37.452Z,959.87
2018-02-25T07:43:37.461Z,959.82
2018-02-25T07:44:37.472Z,959.79
2018-02-25T07:45:37.524Z,959.81
2018-02-25T07:46:37.482Z,959.82
2018-02-25T07:47:37.490Z,959.8
2018-02-25T07:48:37.497Z,959.8
2018-02-25T07:49:37.506Z,959.86
2018-02-25T07:50:37.514Z,959.8
2018-02-25T07:51:37.525Z,959.82
2018-02-25T07:52:37.531Z,959.79
2018-02-25T07:53:37.538Z,959.73
2018-02-25T07:54:37.545Z,959.82
2018-02-25T07:55:37.556Z,959.85
2018-02-25T07:56:37.563Z,959.86
2018-02-25T07:57:37.570Z,959.8
2018-02-25T07:58:37.582Z,959.91
2018-02-25T07:59:37.587Z,959.85
2018-02-25T08:00:37.600Z,959.9
2018-02-25T08:01:37.602Z,959.82
2018-02-25T08:02:37.662Z,959.83
2018-02-25T08:03:37.621Z,959.83
2018-02-25T08:04:37.628Z,959.83
2018-02-25T08:05:37.651Z,959.76
2018-02-25T08:06:37.646Z,959.84
2018-02-25T08:07:37.653Z,959.84
2018-02-25T08:08:37.662Z,959.82
2018-02-25T08:09:37.675Z,959.8
2018-02-25T08:10:37.679Z,959.85
2018-02-25T08:11:37.687Z,959.89
2018-02-25T08:12:37.716Z,959.87
2018-02-25T08:13:37.724Z,959.96
2018-02-25T08:14:37.712Z,959.82
2018-02-25T08:15:37.720Z,959.95
2018-02-25T08:16:37.728Z,959.92
2018-02-25T08:17:37.786Z,960
2018-02-25T08:18:37.744Z,959.95
2018-02-25T08:19:37.753Z,959.91
2018-02-25T08:20:37.761Z,959.93
2018-02-25T08:21:37.769Z,959.91
2018-02-25T08:22:37.776Z,959.88
2018-02-25T08:23:37.784Z,959.86
2018-02-25T08:24:37.792Z,959.87
2018-02-25T08:25:37.801Z,960.08
2018-02-25T08:26:37.808Z,959.94
2018-02-25T08:27:37.818Z,959.94
2018-02-25T08:28:37.826Z,959.96
2018-02-25T08:29:37.832Z,959.91
2018-02-25T08:30:37.842Z,959.94
2018-02-25T08:31:37.850Z,959.92
2018-02-25T08:32:37.909Z,959.97
2018-02-25T08:33:37.867Z,959.99
2018-02-25T08:34:37.876Z,959.99
2018-02-25T08:35:37.884Z,960.02
2018-02-25T08:36:37.896Z,959.99
2018-02-25T08:37:37.907Z,960.04
2018-02-25T08:38:37.910Z,960.03
2018-02-25T08:39:37.919Z,960.08
2018-02-25T08:40:37.926Z,960.02
2018-02-25T08:41:37.936Z,960.06
2018-02-25T08:42:37.944Z,960.13
2018-02-25T08:43:37.953Z,960.05
2018-02-25T08:44:37.962Z,959.98
2018-02-25T08:45:37.971Z,960.15
2018-02-25T08:46:37.984Z,960.04
2018-02-25T08:47:38.049Z,960.07
2018-02-25T08:48:37.997Z,960.1
2018-02-25T08:49:38.007Z,960.03
2018-02-25T08:50:38.015Z,960.05
2018-02-25T08:51:38.027Z,960.04
2018-02-25T08:52:38.033Z,960.06
2018-02-25T08:53:38.041Z,960.12
2018-02-25T08:54:38.050Z,960.02
2018-02-25T08:55:38.060Z,960.08
2018-02-25T08:56:38.067Z,960.05
2018-02-25T08:57:38.077Z,960.06
2018-02-25T08:58:38.086Z,959.99
2018-02-25T08:59:38.094Z,960.08
2018-02-25T09:00:38.105Z,960.07
2018-02-25T09:01:38.112Z,960.07
2018-02-25T09:02:38.171Z,960.07
2018-02-25T09:03:38.131Z,960.12
2018-02-25T09:04:38.139Z,960.06
2018-02-25T09:05:38.148Z,960.01
2018-02-25T09:06:38.156Z,960.1
2018-02-25T09:07:38.165Z,960.11
2018-02-25T09:08:38.174Z,960.06
2018-02-25T09:09:38.184Z,959.99
2018-02-25T09:10:38.190Z,960.05
2018-02-25T09:11:38.201Z,960.04
2018-02-25T09:12:38.314Z,959.99
2018-02-25T09:13:38.218Z,960.07
2018-02-25T09:14:38.227Z,960.02
2018-02-25T09:15:38.244Z,960.04
2018-02-25T09:16:38.255Z,960.06
2018-02-25T09:17:38.304Z,960.06
2018-02-25T09:18:38.269Z,960.16
2018-02-25T09:19:38.276Z,960.19
2018-02-25T09:20:38.281Z,960
2018-02-25T09:21:38.292Z,960.11
2018-02-25T09:22:38.299Z,960.03
2018-02-25T09:23:38.309Z,960.08
2018-02-25T09:24:38.317Z,960.1
2018-02-25T09:25:38.327Z,960.06
2018-02-25T09:26:38.338Z,960.09
2018-02-25T09:27:38.346Z,960.14
2018-02-25T09:28:38.354Z,960.12
2018-02-25T09:29:38.364Z,960.14
2018-02-25T09:30:38.375Z,960.07
2018-02-25T09:31:38.384Z,960.06
2018-02-25T09:32:38.394Z,960.08
2018-02-25T09:33:38.402Z,960.12
2018-02-25T09:34:38.413Z,960.1
2018-02-25T09:35:38.420Z,960.18
2018-02-25T09:36:38.432Z,960.14
2018-02-25T09:37:38.439Z,960.17
2018-02-25T09:38:38.450Z,960.12
2018-02-25T09:39:38.459Z,960.08
2018-02-25T09:40:38.468Z,960.07
2018-02-25T09:41:38.479Z,960.06
2018-02-25T09:42:38.488Z,959.99
2018-02-25T09:43:38.498Z,960.07
2018-02-25T09:44:38.508Z,960.07
2018-02-25T09:45:38.517Z,960.07
2018-02-25T09:46:38.528Z,960.06
2018-02-25T09:47:38.538Z,960.1
2018-02-25T09:48:38.547Z,960.12
2018-02-25T09:49:38.558Z,960.07
2018-02-25T09:50:38.567Z,960.07
2018-02-25T09:51:38.577Z,960.08
2018-02-25T09:52:38.586Z,960.12
2018-02-25T09:53:38.597Z,960.17
2018-02-25T09:54:38.606Z,960.16
2018-02-25T09:55:38.665Z,960.12
2018-02-25T09:56:38.630Z,960.12
2018-02-25T09:57:38.637Z,960.15
2018-02-25T09:58:38.648Z,960.12
2018-02-25T09:59:38.660Z,960.13
2018-02-25T10:00:38.671Z,960.19
2018-02-25T10:01:38.677Z,960.16
2018-02-25T10:02:38.698Z,960.14
2018-02-25T10:03:38.700Z,960.11
2018-02-25T10:04:38.709Z,960.12
2018-02-25T10:05:38.718Z,960.16
2018-02-25T10:06:38.730Z,960.1
2018-02-25T10:07:38.741Z,960.09
2018-02-25T10:08:38.752Z,960.07
2018-02-25T10:09:38.761Z,960.15
2018-02-25T10:10:38.772Z,960.14
2018-02-25T10:11:38.782Z,960.06
2018-02-25T10:12:38.793Z,960.09
2018-02-25T10:13:38.803Z,960.03
2018-02-25T10:14:38.814Z,960.09
2018-02-25T10:15:38.823Z,960.05
2018-02-25T10:16:38.833Z,960.03
2018-02-25T10:17:38.845Z,960.05
2018-02-25T10:18:38.855Z,960.01
2018-02-25T10:19:38.870Z,960.03
2018-02-25T10:20:38.879Z,960.08
2018-02-25T10:21:38.887Z,960.08
2018-02-25T10:22:38.899Z,960.02
2018-02-25T10:23:38.908Z,960.1
2018-02-25T10:24:38.919Z,960.09
2018-02-25T10:25:38.930Z,960.09
2018-02-25T10:26:38.941Z,960.14
2018-02-25T10:27:38.978Z,960.19
2018-02-25T10:28:38.964Z,960.22
2018-02-25T10:29:38.975Z,960.15
2018-02-25T10:30:38.986Z,960.17
2018-02-25T10:31:38.997Z,960.27
2018-02-25T10:32:39.011Z,960.24
2018-02-25T10:33:39.023Z,960.13
2018-02-25T10:34:39.036Z,960.19
2018-02-25T10:35:39.048Z,960.21
2018-02-25T10:36:39.064Z,960.29
2018-02-25T10:37:39.077Z,960.2
2018-02-25T10:38:39.091Z,960.21
2018-02-25T10:39:39.119Z,960.25
2018-02-25T10:40:39.121Z,960.23
2018-02-25T10:41:39.137Z,960.18
2018-02-25T10:42:39.154Z,960.27
2018-02-25T10:43:39.168Z,960.14
2018-02-25T10:44:39.185Z,960.21
2018-02-25T10:45:39.202Z,960.18
2018-02-25T10:46:39.219Z,960.16
2018-02-25T10:47:39.234Z,960.14
2018-02-25T10:48:39.252Z,960.17
2018-02-25T10:49:39.268Z,960.16
2018-02-25T10:50:39.286Z,960.19
2018-02-25T10:51:39.304Z,960.08
2018-02-25T10:52:39.322Z,960.13
2018-02-25T10:53:39.339Z,960.12
2018-02-25T10:54:39.360Z,960.09
2018-02-25T10:55:39.381Z,960.11
2018-02-25T10:56:39.394Z,960.18
2018-02-25T10:57:39.414Z,960.09
2018-02-25T10:58:39.433Z,960.07
2018-02-25T10:59:39.452Z,960.01
2018-02-25T11:00:39.522Z,960.1
2018-02-25T11:01:39.492Z,960.04
2018-02-25T11:02:39.512Z,960.13
2018-02-25T11:03:39.531Z,960.07
2018-02-25T11:04:39.552Z,960.12
2018-02-25T11:05:39.573Z,960.05
2018-02-25T11:06:39.593Z,960.16
2018-02-25T11:07:39.613Z,960.18
2018-02-25T11:08:39.635Z,960.2
2018-02-25T11:09:39.654Z,960.19
2018-02-25T11:10:39.674Z,960.16
2018-02-25T11:11:39.696Z,960.11
2018-02-25T11:12:39.716Z,960.09
2018-02-25T11:13:39.738Z,960.05
2018-02-25T11:14:39.758Z,960.02
2018-02-25T11:15:39.830Z,960
2018-02-25T11:16:39.801Z,960.03
2018-02-25T11:17:39.822Z,960.01
2018-02-25T11:18:39.869Z,960.08
2018-02-25T11:19:39.865Z,960.08
2018-02-25T11:20:39.888Z,960
2018-02-25T11:21:39.909Z,960.14
2018-02-25T11:22:39.931Z,960.05
2018-02-25T11:23:39.954Z,960.08
2018-02-25T11:24:39.977Z,960.02
2018-02-25T11:25:40.096Z,960.05
2018-02-25T11:26:40.020Z,960.01
2018-02-25T11:27:40.042Z,960.06
2018-02-25T11:28:40.064Z,960.05
2018-02-25T11:29:40.088Z,960.09
2018-02-25T11:30:40.164Z,960.13
2018-02-25T11:31:40.224Z,960.14
2018-02-25T11:32:40.154Z,960.08
2018-02-25T11:33:40.178Z,960.07
2018-02-25T11:34:40.201Z,960.1
2018-02-25T11:35:40.226Z,960.07
2018-02-25T11:36:40.266Z,960.06
2018-02-25T11:37:40.280Z,960.05
2018-02-25T11:38:40.298Z,960.04
2018-02-25T11:39:40.320Z,960.05
2018-02-25T11:40:40.446Z,960.08
2018-02-25T11:41:40.367Z,960.09
2018-02-25T11:42:40.434Z,960.08
2018-02-25T11:43:40.417Z,960.17
2018-02-25T11:44:40.486Z,960.12
2018-02-25T11:45:40.516Z,960.1
2018-02-25T11:46:40.490Z,960.12
2018-02-25T11:47:40.549Z,960.1
2018-02-25T11:48:40.540Z,960.1
2018-02-25T11:49:40.563Z,960.11
2018-02-25T11:50:40.586Z,960.06
2018-02-25T11:51:40.613Z,960.14
2018-02-25T11:52:40.660Z,960.09
2018-02-25T11:53:40.663Z,960.14
2018-02-25T11:54:40.686Z,960.12
2018-02-25T11:55:40.713Z,960.05
2018-02-25T11:56:40.848Z,960.13
2018-02-25T11:57:40.764Z,960.2
2018-02-25T11:58:40.786Z,960.18
2018-02-25T11:59:40.813Z,960.15
2018-02-25T12:00:40.839Z,960.1
2018-02-25T12:01:40.912Z,960.17
2018-02-25T12:02:40.890Z,960.07
2018-02-25T12:03:40.917Z,960.08
2018-02-25T12:04:40.939Z,960.11
2018-02-25T12:05:40.961Z,960.17
2018-02-25T12:06:40.987Z,960.12
2018-02-25T12:07:41.013Z,960.24
2018-02-25T12:08:41.038Z,960.17
2018-02-25T12:09:41.062Z,960.14
2018-02-25T12:10:41.089Z,960.19
2018-02-25T12:11:41.136Z,960.2
2018-02-25T12:12:41.140Z,960.23
2018-02-25T12:13:41.164Z,960.22
2018-02-25T12:14:41.190Z,960.23
2018-02-25T12:15:41.215Z,960.23
2018-02-25T12:16:41.292Z,960.2
2018-02-25T12:17:41.267Z,960.19
2018-02-25T12:18:41.294Z,960.2
2018-02-25T12:19:41.320Z,960.12
2018-02-25T12:20:41.344Z,960.12
2018-02-25T12:21:41.371Z,960.18
2018-02-25T12:22:41.397Z,960.16
2018-02-25T12:23:41.426Z,960.14
2018-02-25T12:24:41.449Z,960.18
2018-02-25T12:25:41.476Z,960.18
2018-02-25T12:26:41.500Z,960.19
2018-02-25T12:27:41.527Z,960.12
2018-02-25T12:28:41.554Z,960.14
2018-02-25T12:29:41.580Z,960.17
2018-02-25T12:30:41.609Z,960.25
2018-02-25T12:31:41.684Z,960.21